Terminal Aerodrome Forecast
Issued by NWS Tampa Bay Area, FL

Home | Current Version | Previous Version | Text Only | Print | Product List | Glossary On
Versions: 1 2 3 4 5 6 7 8 9 10 11 12 13 14 15
000
FTUS42 KTBW 231144
TAFSRQ
TAF
KSRQ 231144Z 2312/2412 28020G30KT P6SM VCSH BKN040 OVC070
     FM231600 30025G35KT P6SM SCT030 BKN050
     FM240400 32012KT P6SM SCT040 SCT250=

USA.gov is the U.S. government's official web portal to all federal, state and local government web resources and services.